createdAt,value
2018-03-29T00:02:12.591Z,85.10
2018-03-29T00:04:40.912Z,85.10
2018-03-29T00:07:08.724Z,84.80
2018-03-29T00:09:37.417Z,84.80
2018-03-29T00:12:05.211Z,84.70
2018-03-29T00:14:33.464Z,84.30
2018-03-29T00:17:01.292Z,84.20
2018-03-29T00:19:29.017Z,84.20
2018-03-29T00:21:58.049Z,84.30
2018-03-29T00:24:25.761Z,84.20
2018-03-29T00:26:53.622Z,84.60
2018-03-29T00:29:22.114Z,84.30
2018-03-29T00:31:50.607Z,84.00
2018-03-29T00:34:18.547Z,84.00
2018-03-29T00:36:48.938Z,84.10
2018-03-29T00:39:19.601Z,84.30
2018-03-29T00:41:54.803Z,84.20
2018-03-29T00:44:22.515Z,84.10
2018-03-29T00:46:56.964Z,83.70
2018-03-29T00:49:26.674Z,83.70
2018-03-29T00:51:56.202Z,84.40
2018-03-29T00:54:24.554Z,83.10
2018-03-29T00:56:54.873Z,83.40
2018-03-29T00:59:23.846Z,83.20
2018-03-29T01:02:01.100Z,83.60
2018-03-29T01:04:28.860Z,83.80
2018-03-29T01:06:56.624Z,83.20
2018-03-29T01:09:24.340Z,82.90
2018-03-29T01:11:52.262Z,83.00
2018-03-29T01:14:20.211Z,82.80
2018-03-29T01:16:48.244Z,82.60
2018-03-29T01:19:16.010Z,82.90
2018-03-29T01:21:43.841Z,83.20
2018-03-29T01:24:11.545Z,83.30
2018-03-29T01:26:39.211Z,83.20
2018-03-29T01:29:06.872Z,83.00
2018-03-29T01:31:35.063Z,83.00
2018-03-29T01:34:02.760Z,82.90
2018-03-29T01:36:30.474Z,82.80
2018-03-29T01:38:58.086Z,82.80
2018-03-29T01:41:26.382Z,82.70
2018-03-29T01:43:54.301Z,82.90
2018-03-29T01:46:22.131Z,82.40
2018-03-29T01:48:49.981Z,82.70
2018-03-29T01:51:18.516Z,82.40
2018-03-29T01:53:46.229Z,82.30
2018-03-29T01:56:14.314Z,82.30
2018-03-29T01:58:42.118Z,81.90
2018-03-29T02:01:09.978Z,81.90
2018-03-29T02:03:37.696Z,81.70
2018-03-29T02:06:05.533Z,81.40
2018-03-29T02:08:33.201Z,81.00
2018-03-29T02:11:00.852Z,81.50
2018-03-29T02:13:28.550Z,81.40
2018-03-29T02:15:57.133Z,80.90
2018-03-29T02:18:25.730Z,80.70
2018-03-29T02:20:53.625Z,80.70
2018-03-29T02:23:21.603Z,80.10
2018-03-29T02:25:49.301Z,79.90
2018-03-29T02:28:17.815Z,80.20
2018-03-29T02:30:45.511Z,80.20
2018-03-29T02:33:13.355Z,80.20
2018-03-29T02:35:41.092Z,80.20
2018-03-29T02:38:08.954Z,80.30
2018-03-29T02:40:36.829Z,80.10
2018-03-29T02:43:04.634Z,79.80
2018-03-29T02:45:32.331Z,80.50
2018-03-29T02:48:00.974Z,79.70
2018-03-29T02:50:28.820Z,79.20
2018-03-29T02:52:56.570Z,79.40
2018-03-29T02:55:24.284Z,79.90
2018-03-29T02:57:52.074Z,79.70
2018-03-29T03:00:19.793Z,78.80
2018-03-29T03:02:47.410Z,79.30
2018-03-29T03:05:15.471Z,79.00
2018-03-29T03:07:44.210Z,78.70
2018-03-29T03:10:12.108Z,79.30
2018-03-29T03:12:39.699Z,78.90
2018-03-29T03:15:07.860Z,78.40
2018-03-29T03:17:35.495Z,78.90
2018-03-29T03:20:03.420Z,78.90
2018-03-29T03:22:31.233Z,78.70
2018-03-29T03:24:59.166Z,78.40
2018-03-29T03:27:28.132Z,78.30
2018-03-29T03:29:55.785Z,78.10
2018-03-29T03:32:23.680Z,78.30
2018-03-29T03:34:51.383Z,77.60
2018-03-29T03:37:20.057Z,77.70
2018-03-29T03:39:47.811Z,77.30
2018-03-29T03:42:15.710Z,77.20
2018-03-29T03:44:44.187Z,77.00
2018-03-29T03:47:13.665Z,77.60
2018-03-29T03:49:42.310Z,77.60
2018-03-29T03:52:10.222Z,76.50
2018-03-29T03:54:37.919Z,77.20
2018-03-29T03:57:07.221Z,76.80
2018-03-29T03:59:35.039Z,76.80
2018-03-29T04:02:02.719Z,77.20
2018-03-29T04:04:30.929Z,77.30
2018-03-29T04:06:58.654Z,77.60
2018-03-29T04:09:27.250Z,77.50
2018-03-29T04:11:55.923Z,77.30
2018-03-29T04:14:23.665Z,77.80
2018-03-29T04:16:52.301Z,77.80
2018-03-29T04:19:20.040Z,77.80
2018-03-29T04:21:48.531Z,78.10
2018-03-29T04:24:17.023Z,77.70
2018-03-29T04:26:45.840Z,78.20
2018-03-29T04:29:13.631Z,78.20
2018-03-29T04:31:41.648Z,78.30
2018-03-29T04:34:10.218Z,78.20
2018-03-29T04:36:39.100Z,78.20
2018-03-29T04:39:10.086Z,78.50
2018-03-29T04:41:37.864Z,78.60
2018-03-29T04:44:05.568Z,78.60
2018-03-29T04:46:33.351Z,78.60
2018-03-29T04:49:01.100Z,78.10
2018-03-29T04:51:28.872Z,78.50
2018-03-29T04:53:57.925Z,77.60
2018-03-29T04:56:25.668Z,77.60
2018-03-29T04:58:53.537Z,77.50
2018-03-29T05:04:02.150Z,78.30
2018-03-29T05:06:30.090Z,78.80
2018-03-29T05:08:57.972Z,78.80
2018-03-29T05:11:25.933Z,79.10
2018-03-29T05:13:54.292Z,78.70
2018-03-29T05:16:23.363Z,79.50
2018-03-29T05:18:54.392Z,79.50
2018-03-29T05:21:23.105Z,80.00
2018-03-29T05:23:50.924Z,80.30
2018-03-29T05:26:19.388Z,80.40
2018-03-29T05:28:48.211Z,80.50
2018-03-29T05:31:15.871Z,80.70
2018-03-29T05:33:43.698Z,81.00
2018-03-29T05:36:12.187Z,80.70
2018-03-29T05:38:40.862Z,80.70
2018-03-29T05:41:09.421Z,81.00
2018-03-29T05:43:37.968Z,81.00
2018-03-29T05:46:08.528Z,81.20
2018-03-29T05:48:36.543Z,82.00
2018-03-29T05:51:04.780Z,81.40
2018-03-29T05:53:32.861Z,81.30
2018-03-29T05:56:02.799Z,81.20
2018-03-29T05:58:30.911Z,80.90
2018-03-29T06:01:00.415Z,81.00
2018-03-29T06:03:28.257Z,81.00
2018-03-29T06:05:56.183Z,81.00
2018-03-29T06:08:25.172Z,79.70
2018-03-29T06:10:53.123Z,79.70
2018-03-29T06:13:21.092Z,79.00
2018-03-29T06:18:48.121Z,78.10
2018-03-29T06:21:16.367Z,77.50
2018-03-29T06:23:44.866Z,76.80
2018-03-29T06:26:13.409Z,76.80
2018-03-29T06:28:41.552Z,76.30
2018-03-29T06:31:10.201Z,75.70
2018-03-29T06:33:38.069Z,76.20
2018-03-29T06:36:06.993Z,75.70
2018-03-29T06:38:35.190Z,75.70
2018-03-29T06:41:04.323Z,76.40
2018-03-29T06:43:32.137Z,76.30
2018-03-29T06:45:59.939Z,75.10
2018-03-29T06:48:30.380Z,75.30
2018-03-29T06:50:59.949Z,75.30
2018-03-29T06:53:27.999Z,74.30
2018-03-29T06:55:55.756Z,74.00
2018-03-29T06:58:23.804Z,74.00
2018-03-29T07:00:52.595Z,73.60
2018-03-29T07:03:20.583Z,73.60
2018-03-29T07:05:48.414Z,73.70
2018-03-29T07:08:16.445Z,74.40
2018-03-29T07:10:44.674Z,74.10
2018-03-29T07:13:13.348Z,73.40
2018-03-29T07:15:41.431Z,72.80
2018-03-29T07:18:11.248Z,73.20
2018-03-29T07:20:39.318Z,73.20
2018-03-29T07:23:08.268Z,72.80
2018-03-29T07:25:37.106Z,72.30
2018-03-29T07:28:05.199Z,71.50
2018-03-29T07:30:33.347Z,71.10
2018-03-29T07:33:02.457Z,72.60
2018-03-29T07:35:30.247Z,71.20
2018-03-29T07:37:58.228Z,72.00
2018-03-29T07:40:26.109Z,70.90
2018-03-29T07:42:54.881Z,71.10
2018-03-29T07:45:22.858Z,71.10
2018-03-29T07:47:51.885Z,71.50
2018-03-29T07:50:19.860Z,71.40
2018-03-29T07:52:48.444Z,71.70
2018-03-29T07:55:17.442Z,71.70
2018-03-29T07:57:45.446Z,70.90
2018-03-29T08:00:14.918Z,71.00
2018-03-29T08:02:43.380Z,71.00
2018-03-29T08:05:12.243Z,71.30
2018-03-29T08:07:43.306Z,71.30
2018-03-29T08:10:11.834Z,71.10
2018-03-29T08:12:39.844Z,70.60
2018-03-29T08:15:10.131Z,68.10
2018-03-29T08:17:42.918Z,68.20
2018-03-29T08:20:12.474Z,68.20
2018-03-29T08:22:41.141Z,68.80
2018-03-29T08:25:09.352Z,69.70
2018-03-29T08:27:37.249Z,68.80
2018-03-29T08:30:05.078Z,69.80
2018-03-29T08:32:33.111Z,69.20
2018-03-29T08:35:01.829Z,69.70
2018-03-29T08:37:30.013Z,68.20
2018-03-29T08:39:58.063Z,68.30
2018-03-29T08:42:26.070Z,67.60
2018-03-29T08:44:55.628Z,69.30
2018-03-29T08:47:23.738Z,70.10
2018-03-29T08:49:51.882Z,69.30
2018-03-29T08:52:20.265Z,70.30
2018-03-29T08:54:49.540Z,71.40
2018-03-29T08:57:18.025Z,71.20
2018-03-29T08:59:47.210Z,71.10
2018-03-29T09:02:15.424Z,71.20
2018-03-29T09:04:43.516Z,71.10
2018-03-29T09:07:11.554Z,71.20
2018-03-29T09:09:41.479Z,70.90
2018-03-29T09:12:12.185Z,69.80
2018-03-29T09:14:56.973Z,68.90
2018-03-29T09:17:29.336Z,68.90
2018-03-29T09:19:57.820Z,67.70
2018-03-29T09:22:27.567Z,67.40
2018-03-29T09:24:56.009Z,66.80
2018-03-29T09:27:27.034Z,67.50
2018-03-29T09:29:55.417Z,66.80
2018-03-29T09:32:28.296Z,66.20
2018-03-29T09:34:59.987Z,64.50
2018-03-29T09:37:28.102Z,65.40
2018-03-29T09:39:57.031Z,64.70
2018-03-29T09:42:26.633Z,62.30
2018-03-29T09:44:55.254Z,58.10
2018-03-29T09:47:26.118Z,57.90
2018-03-29T09:49:55.392Z,59.80
2018-03-29T09:55:06.421Z,62.20
2018-03-29T09:57:34.442Z,62.10
2018-03-29T10:00:03.703Z,61.90
2018-03-29T10:02:31.723Z,65.10
2018-03-29T10:05:05.697Z,60.70
2018-03-29T10:07:35.351Z,60.70
2018-03-29T10:10:04.398Z,61.30
2018-03-29T10:12:34.067Z,60.70
2018-03-29T10:15:03.008Z,60.50
2018-03-29T10:17:51.748Z,60.40
2018-03-29T10:20:23.483Z,61.70
2018-03-29T10:22:55.022Z,60.00
2018-03-29T10:34:31.491Z,59.40
2018-03-29T10:37:04.367Z,56.70
2018-03-29T10:39:38.212Z,56.50
2018-03-29T10:42:07.402Z,54.50
2018-03-29T10:44:41.378Z,54.50
2018-03-29T10:47:11.963Z,55.80
2018-03-29T10:49:43.886Z,52.10
2018-03-29T10:52:12.721Z,51.60
2018-03-29T11:00:03.489Z,52.80
2018-03-29T11:02:40.101Z,51.60
2018-03-29T11:05:17.918Z,55.20
2018-03-29T11:07:46.923Z,50.60
2018-03-29T11:10:15.513Z,51.00
2018-03-29T11:12:45.797Z,52.30
2018-03-29T11:15:14.376Z,54.60
2018-03-29T11:17:48.493Z,54.70
2018-03-29T11:20:21.551Z,52.40
2018-03-29T11:22:51.456Z,52.20
2018-03-29T11:25:23.125Z,50.30
2018-03-29T11:27:56.297Z,50.20
2018-03-29T11:30:40.512Z,54.10
2018-03-29T11:33:10.172Z,54.10
2018-03-29T11:35:50.182Z,53.00
2018-03-29T11:38:40.516Z,56.10
2018-03-29T11:44:13.475Z,54.70
2018-03-29T11:49:55.740Z,56.70
2018-03-29T11:52:31.963Z,58.20
2018-03-29T12:22:14.054Z,44.80
2018-03-29T12:24:51.886Z,46.80
2018-03-29T12:30:41.102Z,48.40
2018-03-29T12:33:10.467Z,48.40
2018-03-29T12:35:39.447Z,45.90
2018-03-29T12:38:08.793Z,46.10
2018-03-29T12:40:39.316Z,43.50
2018-03-29T12:43:12.473Z,44.40
2018-03-29T12:45:43.883Z,42.80
2018-03-29T12:48:16.734Z,41.80
2018-03-29T12:50:50.972Z,43.50
2018-03-29T12:53:24.071Z,43.10
2018-03-29T12:56:15.346Z,44.40
2018-03-29T13:10:55.893Z,49.00
2018-03-29T13:13:31.839Z,56.70
2018-03-29T13:16:05.642Z,56.50
2018-03-29T13:18:37.884Z,62.30
2018-03-29T13:21:12.434Z,63.00
2018-03-29T13:23:43.058Z,62.70
2018-03-29T13:26:22.711Z,62.80
2018-03-29T13:28:59.701Z,49.10
2018-03-29T13:31:28.695Z,48.90
2018-03-29T13:33:59.883Z,51.60
2018-03-29T13:36:31.499Z,53.50
2018-03-29T13:39:00.964Z,49.30
2018-03-29T13:41:30.143Z,49.00
2018-03-29T13:44:04.948Z,48.90
2018-03-29T13:46:36.637Z,50.00
2018-03-29T13:49:09.050Z,51.50
2018-03-29T13:54:34.469Z,50.90
2018-03-29T13:57:06.211Z,51.00
2018-03-29T13:59:45.767Z,50.40
2018-03-29T14:02:16.303Z,51.80
2018-03-29T14:04:44.788Z,57.70
2018-03-29T14:07:13.657Z,56.50
2018-03-29T14:09:41.598Z,58.30
2018-03-29T14:12:11.181Z,59.40
2018-03-29T14:14:40.865Z,57.90
2018-03-29T14:17:10.151Z,60.10
2018-03-29T14:19:38.918Z,61.10
2018-03-29T14:22:09.395Z,62.90
2018-03-29T14:24:38.268Z,62.70
2018-03-29T14:27:07.251Z,61.10
2018-03-29T14:29:36.695Z,61.50
2018-03-29T14:32:04.696Z,59.90
2018-03-29T14:34:40.177Z,58.40
2018-03-29T14:37:09.685Z,58.20
2018-03-29T14:39:39.891Z,54.30
2018-03-29T14:42:10.630Z,54.10
2018-03-29T14:44:44.409Z,54.20
2018-03-29T14:47:17.117Z,52.60
2018-03-29T14:49:45.163Z,52.50
2018-03-29T14:52:13.071Z,48.30
2018-03-29T14:54:42.253Z,53.10
2018-03-29T14:57:12.266Z,54.10
2018-03-29T14:59:40.365Z,54.10
2018-03-29T15:02:10.176Z,56.00
2018-03-29T15:04:38.266Z,55.90
2018-03-29T15:07:06.113Z,53.70
2018-03-29T15:09:35.912Z,54.30
2018-03-29T15:12:05.017Z,57.90
2018-03-29T15:14:34.191Z,55.00
2018-03-29T15:17:02.757Z,54.10
2018-03-29T15:19:30.622Z,50.00
2018-03-29T15:21:59.964Z,50.90
2018-03-29T15:24:28.630Z,53.00
2018-03-29T15:26:57.266Z,48.60
2018-03-29T15:29:25.114Z,53.80
2018-03-29T15:31:53.565Z,52.10
2018-03-29T15:34:22.057Z,53.70
2018-03-29T15:36:50.647Z,53.70
2018-03-29T15:39:18.384Z,55.80
2018-03-29T15:41:46.059Z,53.90
2018-03-29T15:47:27.994Z,50.00
2018-03-29T15:49:55.763Z,51.60
2018-03-29T15:52:24.597Z,53.40
2018-03-29T15:54:52.516Z,53.20
2018-03-29T15:57:21.185Z,54.10
2018-03-29T15:59:49.720Z,53.70
2018-03-29T16:02:17.471Z,56.60
2018-03-29T16:04:45.281Z,54.00
2018-03-29T16:07:12.998Z,52.60
2018-03-29T16:09:41.751Z,55.10
2018-03-29T16:12:10.377Z,52.20
2018-03-29T16:14:39.835Z,51.20
2018-03-29T16:17:08.246Z,51.20
2018-03-29T16:19:36.250Z,54.80
2018-03-29T16:22:04.086Z,52.90
2018-03-29T16:24:32.950Z,54.90
2018-03-29T21:04:12.110Z,52.90
2018-03-29T21:06:40.080Z,68.80
2018-03-29T21:09:13.548Z,68.40
2018-03-29T21:14:14.713Z,69.00
2018-03-29T21:16:42.545Z,69.50
2018-03-29T21:19:16.813Z,68.80
2018-03-29T21:21:48.909Z,69.90
2018-03-29T21:24:17.370Z,70.30
2018-03-29T21:26:49.449Z,70.40
2018-03-29T21:29:18.861Z,70.10
2018-03-29T21:31:47.805Z,70.00
2018-03-29T21:34:16.296Z,70.70
2018-03-29T21:36:44.140Z,71.00
2018-03-29T21:39:13.314Z,71.10
2018-03-29T21:41:41.596Z,71.10
2018-03-29T21:44:09.961Z,71.00
2018-03-29T21:46:39.310Z,71.00
2018-03-29T21:49:11.805Z,70.60
2018-03-29T21:51:40.745Z,70.60
2018-03-29T21:54:10.223Z,70.60
2018-03-29T21:56:38.816Z,70.70
2018-03-29T21:59:07.795Z,70.80
2018-03-29T22:01:36.436Z,70.60
2018-03-29T22:04:04.772Z,70.60
2018-03-29T22:06:32.883Z,70.00
2018-03-29T22:09:01.530Z,69.90
2018-03-29T22:11:30.917Z,69.50
2018-03-29T22:13:59.272Z,70.00
2018-03-29T22:16:28.278Z,70.00
2018-03-29T22:18:56.564Z,70.30
2018-03-29T22:21:26.285Z,69.80
2018-03-29T22:23:55.775Z,70.10
2018-03-29T22:26:31.899Z,70.00
2018-03-29T22:29:07.563Z,69.70
2018-03-29T22:31:37.579Z,70.00
2018-03-29T22:34:07.096Z,69.10
2018-03-29T22:36:36.276Z,69.80
2018-03-29T22:39:11.126Z,68.70
2018-03-29T22:41:41.633Z,69.40
2018-03-29T22:44:11.525Z,69.40
2018-03-29T22:46:39.474Z,69.30
2018-03-29T22:49:07.481Z,68.70
2018-03-29T22:51:36.172Z,68.70
2018-03-29T22:54:06.201Z,68.70
2018-03-29T22:56:34.764Z,69.20
2018-03-29T22:59:02.630Z,69.20
2018-03-29T23:01:31.642Z,69.30
2018-03-29T23:04:01.258Z,69.50
2018-03-29T23:06:30.383Z,69.50
2018-03-29T23:08:58.331Z,69.50
2018-03-29T23:11:26.701Z,69.10
2018-03-29T23:16:30.004Z,69.10
2018-03-29T23:19:03.866Z,69.00
2018-03-29T23:21:40.236Z,68.10
2018-03-29T23:24:08.464Z,67.80
2018-03-29T23:26:36.494Z,68.30
2018-03-29T23:29:04.605Z,68.50
2018-03-29T23:31:32.618Z,68.40
2018-03-29T23:34:01.012Z,67.20
2018-03-29T23:36:30.910Z,68.20
2018-03-29T23:38:59.221Z,68.20
2018-03-29T23:41:27.122Z,68.50
2018-03-29T23:44:00.133Z,67.70
2018-03-29T23:46:29.331Z,68.60
2018-03-29T23:48:57.206Z,68.50
2018-03-29T23:51:25.587Z,67.50
2018-03-29T23:53:57.641Z,68.80
2018-03-29T23:56:26.786Z,68.40
2018-03-29T23:58:56.335Z,67.80
